»·PEaware :: AAL123 KDFW-PHNL

AAL123 :: KDFW-PHNL

FLIGHT INFORMATION

Flight Status: Arrived
Operator:
American Airlines
More flights by this operator :: More flights under this callsign
Pilot: Drew Leevy (13237)
Aircraft: BOEING 767-300
(B763)
More flights by this aircraft type
Origin: KDFW Dallas-Ft Worth Intl
United States
Destination: PHNL Honolulu Intl
United States
More flights between these airports :: More routes between these airports
Route: WSTEX2 DOSXX FST MEGBE OTEXA IMUSU 2500N/12000W 2300N/12500W 2300N/13000W 2200N/13500W 2200N/14000W 2100N/15000W SAYTO SCOON V21 LNY JULLE5
File this flight plan on PilotEdge
Remarks:
Altitude:
(Current/Filed)
32,000ft
Speed:
(Current/Filed)
450kts
Departed: 22-Apr-17 12:41 PM
Arrived: 22-Apr-17 09:47 PM
Distance/Time
Traveled:
3281nm/9:05
Distance/Time
To Go:
Arrived

Flight Plot

Page will automatically refresh every two minutes.

Flight plan parsing failed; only flown route is shown


Map Options




Map Legend


Flown Route
Filed Route
Departure Airport
Arrival Airport
Navaid (VOR, NDB)
Fix

Horizontal Profiles

Position Reports

Time Latitude Longitude Heading Altitude Ground
Speed
22-Apr-17 12:33 32.905379 -97.034008 159 617ft 18kts
22-Apr-17 12:34 32.900208 -97.033236 179 617ft 17kts
22-Apr-17 12:35 32.895832 -97.033238 180 617ft 14kts
22-Apr-17 12:36 32.890257 -97.033267 180 617ft 25kts
22-Apr-17 12:37 32.886035 -97.033813 265 617ft 9kts
22-Apr-17 12:39 32.886066 -97.044463 269 617ft 30kts
22-Apr-17 12:39 32.882989 -97.046144 180 617ft 22kts
22-Apr-17 12:40 32.879079 -97.047296 271 617ft 17kts
22-Apr-17 12:41 32.879332 -97.050869 343 617ft 2kts
22-Apr-17 12:42 32.884055 -97.050897 359 617ft 89kts
22-Apr-17 12:43 32.930799 -97.051460 357 2163ft 210kts
22-Apr-17 12:44 32.992235 -97.074385 328 4728ft 249kts
22-Apr-17 12:45 33.007416 -97.150276 267 7755ft 256kts
22-Apr-17 12:46 32.999356 -97.235284 252 10513ft 277kts
22-Apr-17 12:47 32.945901 -97.323255 234 11707ft 367kts
22-Apr-17 12:48 32.882715 -97.420547 235 15015ft 381kts
22-Apr-17 12:49 32.816868 -97.521683 235 17868ft 397kts
22-Apr-17 12:50 32.748142 -97.626956 235 20475ft 413kts
22-Apr-17 12:51 32.684284 -97.739982 252 22804ft 420kts
22-Apr-17 12:52 32.667301 -97.876805 266 24922ft 429kts
22-Apr-17 12:53 32.655788 -98.019601 266 26872ft 441kts
22-Apr-17 12:54 32.644067 -98.166168 266 28648ft 453kts
22-Apr-17 12:55 32.632044 -98.314865 266 30657ft 454kts
22-Apr-17 12:56 32.619893 -98.463348 266 32160ft 456kts
22-Apr-17 12:57 32.607610 -98.611212 266 32150ft 449kts
22-Apr-17 12:58 32.595448 -98.755626 266 32184ft 451kts
22-Apr-17 12:59 32.582869 -98.902903 266 32184ft 450kts
22-Apr-17 13:00 32.570108 -99.050242 266 32183ft 450kts
22-Apr-17 13:01 32.557164 -99.197673 266 32182ft 450kts
22-Apr-17 13:02 32.541352 -99.344428 258 32176ft 453kts
22-Apr-17 13:03 32.507281 -99.487400 257 32207ft 454kts
22-Apr-17 13:04 32.472354 -99.630667 256 32206ft 453kts
22-Apr-17 13:05 32.437535 -99.772429 256 32212ft 454kts
22-Apr-17 13:06 32.402322 -99.915009 256 32184ft 454kts
22-Apr-17 13:07 32.347206 -100.050430 245 32184ft 460kts
22-Apr-17 13:08 32.286602 -100.182815 244 32183ft 459kts
22-Apr-17 13:09 32.225839 -100.314670 244 32236ft 460kts
22-Apr-17 13:10 32.164677 -100.446875 244 32236ft 459kts
22-Apr-17 13:11 32.103937 -100.577686 244 32221ft 445kts
22-Apr-17 13:12 32.044657 -100.704927 243 32243ft 450kts
22-Apr-17 13:13 31.984558 -100.833463 243 32240ft 449kts
22-Apr-17 13:14 31.924494 -100.961490 243 32238ft 448kts
22-Apr-17 13:15 31.864748 -101.088402 243 32236ft 449kts
22-Apr-17 13:16 31.804250 -101.216471 243 32235ft 449kts
22-Apr-17 13:17 31.743640 -101.344341 243 32234ft 449kts
22-Apr-17 13:18 31.682962 -101.471918 243 32233ft 448kts
22-Apr-17 13:19 31.622315 -101.599000 243 32232ft 448kts
22-Apr-17 13:20 31.561846 -101.725282 243 32212ft 449kts
22-Apr-17 13:21 31.500671 -101.852608 243 32212ft 448kts
22-Apr-17 13:22 31.439497 -101.979504 243 32211ft 448kts
22-Apr-17 13:23 31.378129 -102.106380 243 32209ft 448kts
22-Apr-17 13:24 31.317076 -102.232185 243 32209ft 448kts
22-Apr-17 13:25 31.255610 -102.358422 243 32207ft 448kts
22-Apr-17 13:26 31.193839 -102.484866 243 32206ft 448kts
22-Apr-17 13:27 31.132145 -102.610742 243 32205ft 447kts
22-Apr-17 13:28 31.071175 -102.734720 242 32213ft 448kts
22-Apr-17 13:30 31.009424 -102.859890 242 32212ft 448kts
22-Apr-17 13:31 30.948408 -102.986075 248 32205ft 445kts
22-Apr-17 13:32 30.900449 -103.118391 249 32210ft 445kts
22-Apr-17 13:33 30.853261 -103.248162 249 32208ft 445kts
22-Apr-17 13:34 30.805129 -103.380059 249 32206ft 445kts
22-Apr-17 13:35 30.756881 -103.511781 249 32259ft 444kts
22-Apr-17 13:36 30.708377 -103.643702 249 32258ft 444kts
22-Apr-17 13:37 30.660133 -103.774434 248 32266ft 444kts
22-Apr-17 13:38 30.611339 -103.906159 248 32265ft 444kts
22-Apr-17 13:39 30.562517 -104.037471 248 32264ft 444kts
22-Apr-17 13:40 30.513667 -104.168375 248 32263ft 444kts
22-Apr-17 13:41 30.464571 -104.299455 248 32262ft 444kts
22-Apr-17 13:42 30.415345 -104.430393 248 32260ft 444kts
22-Apr-17 13:43 30.366193 -104.560668 248 32259ft 444kts
22-Apr-17 13:44 30.317314 -104.689747 248 32269ft 444kts
22-Apr-17 13:45 30.266211 -104.819103 246 32260ft 444kts
22-Apr-17 13:46 30.213039 -104.947949 246 32076ft 444kts
22-Apr-17 13:47 30.159703 -105.076796 246 32075ft 446kts
22-Apr-17 13:48 30.106160 -105.205703 246 32074ft 446kts
22-Apr-17 13:49 30.052545 -105.334343 246 32072ft 445kts
22-Apr-17 13:50 29.998807 -105.462840 246 32071ft 445kts
22-Apr-17 13:51 29.944892 -105.591320 246 32070ft 445kts
22-Apr-17 13:52 29.892270 -105.716291 246 32078ft 446kts
22-Apr-17 13:53 29.838207 -105.844262 246 32076ft 445kts
22-Apr-17 13:54 29.784033 -105.972066 246 32075ft 445kts
22-Apr-17 13:55 29.729598 -106.100060 246 32074ft 446kts
22-Apr-17 13:56 29.675152 -106.227651 246 32091ft 445kts
22-Apr-17 13:57 29.620555 -106.355171 246 32125ft 445kts
22-Apr-17 13:58 29.566048 -106.482057 246 32125ft 445kts
22-Apr-17 13:59 29.511274 -106.609151 246 32123ft 445kts
22-Apr-17 14:00 29.457537 -106.733434 245 32078ft 445kts
22-Apr-17 14:01 29.402634 -106.860002 245 32077ft 445kts
22-Apr-17 14:02 29.347687 -106.986261 245 32130ft 445kts
22-Apr-17 14:03 29.292598 -107.112432 245 32074ft 443kts
22-Apr-17 14:04 29.237396 -107.238462 245 32073ft 444kts
22-Apr-17 14:05 29.182023 -107.364476 245 32072ft 444kts
22-Apr-17 14:06 29.126569 -107.490270 245 32071ft 444kts
22-Apr-17 14:07 29.071043 -107.615826 245 32070ft 444kts
22-Apr-17 14:08 29.016084 -107.739693 245 32077ft 444kts
22-Apr-17 14:09 28.960386 -107.864844 245 31937ft 444kts
22-Apr-17 14:10 28.904405 -107.990238 245 31887ft 445kts
22-Apr-17 14:11 28.849558 -108.112703 245 31885ft 445kts
22-Apr-17 14:12 28.793218 -108.238114 245 31884ft 445kts
22-Apr-17 14:13 28.736925 -108.363031 245 31883ft 445kts
22-Apr-17 14:14 28.680426 -108.488011 245 31881ft 445kts
22-Apr-17 14:15 28.634722 -108.618133 251 31881ft 443kts
22-Apr-17 14:16 28.591519 -108.745278 250 31888ft 443kts
22-Apr-17 14:17 28.546865 -108.875863 250 31887ft 443kts
22-Apr-17 14:18 28.502164 -109.006067 250 31886ft 443kts
22-Apr-17 14:19 28.457304 -109.136260 250 31885ft 443kts
22-Apr-17 14:20 28.412346 -109.266269 250 31883ft 443kts
22-Apr-17 14:21 28.367374 -109.395852 250 31882ft 443kts
22-Apr-17 14:22 28.322146 -109.525713 250 31881ft 443kts
22-Apr-17 14:23 28.277345 -109.653885 249 31881ft 443kts
22-Apr-17 14:24 28.231862 -109.783547 249 31888ft 443kts
22-Apr-17 14:25 28.187109 -109.910682 249 31889ft 432kts
22-Apr-17 14:26 28.142448 -110.037130 249 31884ft 433kts
22-Apr-17 14:27 28.097610 -110.163700 248 31900ft 428kts
22-Apr-17 14:28 28.054782 -110.284093 248 31860ft 416kts
22-Apr-17 14:29 28.011464 -110.405497 248 31850ft 415kts
22-Apr-17 14:30 27.968235 -110.526274 248 31849ft 415kts
22-Apr-17 14:31 27.924887 -110.647062 248 31846ft 415kts
22-Apr-17 14:32 27.882417 -110.764866 248 31864ft 416kts
22-Apr-17 14:33 27.838725 -110.885768 248 31863ft 415kts
22-Apr-17 14:34 27.794963 -111.006474 248 33040ft 415kts
22-Apr-17 14:35 27.751706 -111.125397 248 34996ft 406kts
22-Apr-17 14:36 27.709127 -111.242101 248 36397ft 401kts
22-Apr-17 14:37 27.666756 -111.357881 248 37308ft 400kts
22-Apr-17 14:38 27.624494 -111.473014 248 37851ft 399kts
22-Apr-17 14:39 27.582101 -111.588153 248 37849ft 398kts
22-Apr-17 14:40 27.540078 -111.701949 247 37865ft 398kts
22-Apr-17 14:41 27.497564 -111.816732 247 37862ft 398kts
22-Apr-17 14:42 27.454896 -111.931658 247 37859ft 397kts
22-Apr-17 14:43 27.412174 -112.046241 247 37858ft 398kts
22-Apr-17 14:44 27.369383 -112.160747 247 37856ft 398kts
22-Apr-17 14:45 27.329955 -112.276194 259 37849ft 398kts
22-Apr-17 14:46 27.324178 -112.401009 265 37852ft 401kts
22-Apr-17 14:47 27.319988 -112.525636 265 37850ft 400kts
22-Apr-17 14:48 27.315743 -112.650062 265 37848ft 400kts
22-Apr-17 14:49 27.311389 -112.774572 265 37861ft 400kts
22-Apr-17 14:50 27.306929 -112.899015 265 37860ft 400kts
22-Apr-17 14:51 27.302336 -113.024064 265 37857ft 400kts
22-Apr-17 14:52 27.297643 -113.148820 265 37855ft 400kts
22-Apr-17 14:53 27.292821 -113.273831 265 37858ft 401kts
22-Apr-17 14:54 27.287921 -113.398387 265 37851ft 400kts
22-Apr-17 14:55 27.282892 -113.523212 265 37850ft 400kts
22-Apr-17 14:56 27.277763 -113.647772 265 37847ft 400kts
22-Apr-17 14:57 27.272525 -113.772202 264 37861ft 400kts
22-Apr-17 14:58 27.267173 -113.896788 264 37859ft 400kts
22-Apr-17 14:59 27.261719 -114.021152 264 37857ft 400kts
22-Apr-17 15:00 27.256141 -114.145836 264 37855ft 400kts
22-Apr-17 15:01 27.250453 -114.270519 264 37853ft 400kts
22-Apr-17 15:02 27.244661 -114.395035 264 37851ft 400kts
22-Apr-17 15:03 27.238751 -114.519692 264 37849ft 400kts
22-Apr-17 15:04 27.232728 -114.644336 264 37819ft 400kts
22-Apr-17 15:05 27.226606 -114.768769 264 37834ft 400kts
22-Apr-17 15:06 27.220381 -114.893092 264 37832ft 400kts
22-Apr-17 15:07 27.214030 -115.017697 264 37830ft 400kts
22-Apr-17 15:08 27.207582 -115.142050 264 37828ft 400kts
22-Apr-17 15:09 27.201015 -115.266555 264 37826ft 400kts
22-Apr-17 15:10 27.194329 -115.391259 264 37824ft 400kts
22-Apr-17 15:11 27.187541 -115.515720 264 37822ft 400kts
22-Apr-17 15:12 27.180634 -115.640376 264 37820ft 400kts
22-Apr-17 15:13 27.173625 -115.764768 263 37833ft 400kts
22-Apr-17 15:14 27.166520 -115.888985 263 37832ft 400kts
22-Apr-17 15:15 27.159270 -116.013815 263 37830ft 400kts
22-Apr-17 15:16 27.151954 -116.137860 263 37828ft 400kts
22-Apr-17 15:17 27.144498 -116.262388 263 37824ft 400kts
22-Apr-17 15:18 27.136948 -116.386694 263 37824ft 400kts
22-Apr-17 15:19 27.129271 -116.511245 263 37822ft 400kts
22-Apr-17 15:20 27.121503 -116.635491 263 37820ft 400kts
22-Apr-17 15:21 27.113622 -116.759665 263 37833ft 400kts
22-Apr-17 15:22 27.105636 -116.883841 263 37831ft 400kts
22-Apr-17 15:23 27.097526 -117.008229 263 37829ft 400kts
22-Apr-17 15:24 27.089340 -117.132116 263 37827ft 400kts
22-Apr-17 15:25 27.081039 -117.256092 263 37917ft 399kts
22-Apr-17 15:26 27.072604 -117.380368 263 37930ft 400kts
22-Apr-17 15:27 27.064051 -117.504728 263 37930ft 400kts
22-Apr-17 15:28 27.055422 -117.628698 263 37927ft 400kts
22-Apr-17 15:29 27.046672 -117.752683 262 37941ft 400kts
22-Apr-17 15:30 27.037796 -117.876975 262 37939ft 400kts
22-Apr-17 15:31 27.028814 -118.001187 262 37937ft 400kts
22-Apr-17 15:32 27.019734 -118.125251 262 37935ft 400kts
22-Apr-17 15:33 27.010560 -118.249105 262 37933ft 400kts
22-Apr-17 15:34 27.001278 -118.372929 262 37931ft 400kts
22-Apr-17 15:35 26.991878 -118.496853 262 37929ft 400kts
22-Apr-17 15:36 26.982356 -118.620948 262 37927ft 400kts
22-Apr-17 15:37 26.972824 -118.743655 262 37940ft 400kts
22-Apr-17 15:38 26.963133 -118.867109 262 37939ft 400kts
22-Apr-17 15:39 26.953290 -118.991070 262 37937ft 400kts
22-Apr-17 15:40 26.943342 -119.114952 262 37933ft 400kts
22-Apr-17 15:41 26.933272 -119.239051 262 37933ft 400kts
22-Apr-17 15:42 26.923112 -119.362874 262 37931ft 400kts
22-Apr-17 15:43 26.912843 -119.486687 262 37929ft 400kts
22-Apr-17 15:44 26.902451 -119.610644 262 37926ft 400kts
22-Apr-17 15:45 26.891977 -119.734257 262 37946ft 400kts
22-Apr-17 15:46 26.881368 -119.858154 262 37945ft 400kts
22-Apr-17 15:47 26.870703 -119.981469 262 37943ft 400kts
22-Apr-17 15:48 26.859897 -120.105185 262 37941ft 400kts
22-Apr-17 15:49 26.848965 -120.228907 262 37939ft 400kts
22-Apr-17 15:50 26.837951 -120.352447 262 37937ft 400kts
22-Apr-17 15:51 26.826811 -120.476188 262 37935ft 400kts
22-Apr-17 15:52 26.815585 -120.599615 262 37933ft 400kts
22-Apr-17 15:53 26.804290 -120.722691 261 37973ft 400kts
22-Apr-17 15:54 26.792847 -120.846122 261 37972ft 399kts
22-Apr-17 15:55 26.781298 -120.969505 261 37970ft 399kts
22-Apr-17 15:56 26.769611 -121.093206 261 37968ft 399kts
22-Apr-17 15:57 26.757849 -121.216542 261 37966ft 399kts
22-Apr-17 15:58 26.745988 -121.339792 261 37964ft 399kts
22-Apr-17 15:59 26.734032 -121.462882 261 37962ft 399kts
22-Apr-17 16:00 26.721930 -121.586353 261 37960ft 399kts
22-Apr-17 16:01 26.709719 -121.709815 260 37974ft 400kts
22-Apr-17 16:02 26.697430 -121.832993 260 37971ft 399kts
22-Apr-17 16:03 26.685047 -121.955990 260 37969ft 399kts
22-Apr-17 16:04 26.672546 -122.079090 260 37967ft 399kts
22-Apr-17 16:05 26.659920 -122.202350 260 37965ft 399kts
22-Apr-17 16:06 26.647200 -122.325450 260 37963ft 399kts
22-Apr-17 16:06 26.636540 -122.427815 260 37962ft 399kts
22-Apr-17 16:08 26.621464 -122.571364 260 37959ft 399kts
22-Apr-17 16:09 26.608440 -122.694257 260 37975ft 400kts
22-Apr-17 16:09 26.597465 -122.797060 260 37970ft 399kts
22-Apr-17 16:11 26.582028 -122.940389 260 37969ft 399kts
22-Apr-17 16:12 26.568700 -123.063104 260 37967ft 399kts
22-Apr-17 16:12 26.557501 -123.165482 260 37965ft 399kts
22-Apr-17 16:14 26.541699 -123.308695 260 37963ft 399kts
22-Apr-17 16:14 26.530314 -123.411078 260 37961ft 399kts
22-Apr-17 16:16 26.514279 -123.554140 260 37932ft 399kts
22-Apr-17 16:16 26.502705 -123.656604 259 37933ft 399kts
22-Apr-17 16:18 26.486426 -123.799592 259 37943ft 399kts
22-Apr-17 16:18 26.474726 -123.901566 259 37942ft 399kts
22-Apr-17 16:19 26.460569 -124.024095 259 37939ft 399kts
22-Apr-17 16:21 26.443897 -124.167208 259 37937ft 399kts
22-Apr-17 16:21 26.431927 -124.269190 259 37935ft 399kts
22-Apr-17 16:22 26.417467 -124.391541 259 37933ft 399kts
22-Apr-17 16:23 26.402879 -124.514068 259 37931ft 399kts
22-Apr-17 16:25 26.385771 -124.656615 259 37932ft 399kts
22-Apr-17 16:25 26.373453 -124.758495 259 37942ft 399kts
22-Apr-17 16:27 26.356076 -124.901187 259 37941ft 399kts
22-Apr-17 16:27 26.343542 -125.003361 259 37939ft 399kts
22-Apr-17 16:29 26.325947 -125.145804 259 37936ft 399kts
22-Apr-17 16:29 26.313292 -125.247513 259 37935ft 399kts
22-Apr-17 16:30 26.297985 -125.369737 259 37933ft 399kts
22-Apr-17 16:31 26.282615 -125.491664 259 37931ft 399kts
22-Apr-17 16:32 26.267066 -125.614088 259 37929ft 399kts
22-Apr-17 16:33 26.251502 -125.735775 259 37942ft 399kts
22-Apr-17 16:34 26.235800 -125.857740 259 37940ft 398kts
22-Apr-17 16:35 26.220009 -125.979559 259 37938ft 399kts
22-Apr-17 16:36 26.204090 -126.101545 259 37936ft 399kts
22-Apr-17 16:37 26.188066 -126.223519 259 37934ft 399kts
22-Apr-17 16:38 26.171944 -126.345418 259 37932ft 399kts
22-Apr-17 16:39 26.155785 -126.466793 259 37930ft 399kts
22-Apr-17 16:40 26.139447 -126.588707 259 37928ft 399kts
22-Apr-17 16:41 26.123022 -126.710445 258 37942ft 399kts
22-Apr-17 16:42 26.106519 -126.832000 258 37939ft 398kts
22-Apr-17 16:43 26.089904 -126.953588 258 37938ft 398kts
22-Apr-17 16:44 26.073164 -127.075308 258 37936ft 398kts
22-Apr-17 16:45 26.056353 -127.196783 258 37933ft 398kts
22-Apr-17 16:46 26.039419 -127.318371 258 37931ft 398kts
22-Apr-17 16:47 26.022390 -127.439870 258 37929ft 399kts
22-Apr-17 16:48 26.005240 -127.561502 257 37925ft 399kts
22-Apr-17 16:49 25.987672 -127.685262 254 37944ft 412kts
22-Apr-17 16:50 25.969424 -127.812852 254 37945ft 426kts
22-Apr-17 16:51 25.950681 -127.943372 254 37930ft 429kts
22-Apr-17 16:52 25.931809 -128.073798 254 37932ft 429kts
22-Apr-17 16:53 25.912768 -128.204549 254 37930ft 429kts
22-Apr-17 16:54 25.893676 -128.334782 254 37946ft 429kts
22-Apr-17 16:55 25.874405 -128.465400 254 37942ft 429kts
22-Apr-17 16:56 25.855038 -128.595828 254 37941ft 429kts
22-Apr-17 16:57 25.835742 -128.724997 254 37946ft 429kts
22-Apr-17 16:58 25.816124 -128.855490 254 37946ft 429kts
22-Apr-17 16:59 25.796411 -128.985775 254 37944ft 429kts
22-Apr-17 17:00 25.776601 -129.115903 254 37943ft 429kts
22-Apr-17 17:01 25.756671 -129.246014 254 37943ft 430kts
22-Apr-17 17:02 25.736553 -129.376561 254 37941ft 429kts
22-Apr-17 17:03 25.716337 -129.506942 254 37940ft 430kts
22-Apr-17 17:04 25.696049 -129.636986 254 37939ft 430kts
22-Apr-17 17:05 25.675609 -129.767244 253 37944ft 429kts
22-Apr-17 17:06 25.655035 -129.897548 253 37943ft 429kts
22-Apr-17 17:07 25.634415 -130.027376 253 37942ft 429kts
22-Apr-17 17:08 25.613614 -130.157567 253 37941ft 430kts
22-Apr-17 17:09 25.592720 -130.287580 253 37940ft 430kts
22-Apr-17 17:10 25.571721 -130.417492 253 37938ft 430kts
22-Apr-17 17:11 25.550535 -130.547801 253 37938ft 430kts
22-Apr-17 17:12 25.529277 -130.677800 253 37943ft 430kts
22-Apr-17 17:13 25.507922 -130.807644 253 37942ft 430kts
22-Apr-17 17:14 25.486443 -130.937510 253 37940ft 430kts
22-Apr-17 17:15 25.464766 -131.067814 253 37939ft 430kts
22-Apr-17 17:16 25.443054 -131.197597 253 37938ft 430kts
22-Apr-17 17:18 25.421218 -131.327398 253 37937ft 430kts
22-Apr-17 17:19 25.399273 -131.457119 253 37936ft 430kts
22-Apr-17 17:20 25.377199 -131.586889 253 37935ft 430kts
22-Apr-17 17:21 25.354987 -131.716751 253 37939ft 430kts
22-Apr-17 17:22 25.332678 -131.846453 253 37939ft 430kts
22-Apr-17 17:23 25.310245 -131.976176 253 37937ft 430kts
22-Apr-17 17:24 25.287741 -132.105623 253 37936ft 430kts
22-Apr-17 17:25 25.265080 -132.235266 253 37935ft 431kts
22-Apr-17 17:26 25.242278 -132.365014 253 37934ft 431kts
22-Apr-17 17:27 25.219335 -132.494870 253 37933ft 431kts
22-Apr-17 17:28 25.196299 -132.624559 253 37932ft 431kts
22-Apr-17 17:29 25.173162 -132.754121 252 37936ft 431kts
22-Apr-17 17:30 25.149924 -132.883575 252 37936ft 431kts
22-Apr-17 17:31 25.126543 -133.013154 252 37934ft 431kts
22-Apr-17 17:32 25.103050 -133.142689 252 37933ft 431kts
22-Apr-17 17:33 25.079467 -133.272046 252 37932ft 431kts
22-Apr-17 17:34 25.055754 -133.401451 252 37931ft 431kts
22-Apr-17 17:35 25.031949 -133.530698 252 37930ft 431kts
22-Apr-17 17:36 25.008046 -133.659821 252 37931ft 431kts
22-Apr-17 17:37 24.983965 -133.789215 252 37934ft 432kts
22-Apr-17 17:38 24.959738 -133.918778 252 37932ft 432kts
22-Apr-17 17:39 24.935452 -134.048008 252 37931ft 432kts
22-Apr-17 17:40 24.911093 -134.176974 252 37930ft 432kts
22-Apr-17 17:41 24.886530 -134.306369 252 37944ft 432kts
22-Apr-17 17:42 24.861875 -134.435629 252 37943ft 432kts
22-Apr-17 17:43 24.837161 -134.564547 252 37942ft 432kts
22-Apr-17 17:44 24.812273 -134.693755 251 38029ft 432kts
22-Apr-17 17:45 24.787418 -134.822190 251 37955ft 432kts
22-Apr-17 17:46 24.762390 -134.950868 251 38027ft 432kts
22-Apr-17 17:47 24.737203 -135.079767 251 38024ft 432kts
22-Apr-17 17:48 24.711938 -135.208429 251 38023ft 432kts
22-Apr-17 17:49 24.686432 -135.337705 251 38023ft 433kts
22-Apr-17 17:50 24.660871 -135.466666 251 38021ft 433kts
22-Apr-17 17:51 24.635200 -135.595554 251 38020ft 433kts
22-Apr-17 17:52 24.609433 -135.724337 251 38024ft 432kts
22-Apr-17 17:53 24.583605 -135.852817 251 38023ft 432kts
22-Apr-17 17:54 24.557636 -135.981458 250 38017ft 434kts
22-Apr-17 17:55 24.531337 -136.111029 250 38020ft 436kts
22-Apr-17 17:56 24.504999 -136.240234 250 38021ft 435kts
22-Apr-17 17:57 24.478484 -136.369726 250 38019ft 435kts
22-Apr-17 17:58 24.451870 -136.499105 250 38018ft 435kts
22-Apr-17 17:59 24.425146 -136.628419 250 38017ft 435kts
22-Apr-17 18:00 24.398303 -136.757733 250 38020ft 435kts
22-Apr-17 18:01 24.371380 -136.886841 250 38020ft 435kts
22-Apr-17 18:02 24.344399 -137.015655 250 38022ft 435kts
22-Apr-17 18:03 24.317147 -137.145183 250 38072ft 436kts
22-Apr-17 18:04 24.289903 -137.274104 250 38071ft 436kts
22-Apr-17 18:05 24.262571 -137.402876 250 38070ft 436kts
22-Apr-17 18:06 24.235980 -137.527543 254 38030ft 395kts
22-Apr-17 18:07 24.210874 -137.644857 254 38072ft 402kts
22-Apr-17 18:08 24.185396 -137.763432 254 38073ft 399kts
22-Apr-17 18:09 24.159822 -137.881949 254 38074ft 400kts
22-Apr-17 18:10 24.134170 -138.000366 254 38072ft 400kts
22-Apr-17 18:11 24.108518 -138.118310 254 38070ft 400kts
22-Apr-17 18:12 24.082694 -138.236582 254 38068ft 400kts
22-Apr-17 18:13 24.056759 -138.354900 254 38066ft 400kts
22-Apr-17 18:14 24.030768 -138.473013 254 38064ft 400kts
22-Apr-17 18:15 24.004586 -138.591515 254 38062ft 400kts
22-Apr-17 18:16 23.978763 -138.707992 253 38081ft 401kts
22-Apr-17 18:17 23.952437 -138.826209 253 38073ft 400kts
22-Apr-17 18:18 23.926138 -138.943891 253 38071ft 400kts
22-Apr-17 18:19 23.899608 -139.062160 253 38069ft 400kts
22-Apr-17 18:20 23.873077 -139.179972 253 38076ft 400kts
22-Apr-17 18:21 23.846383 -139.298065 253 38074ft 400kts
22-Apr-17 18:22 23.819668 -139.415796 253 38072ft 400kts
22-Apr-17 18:23 23.792812 -139.533716 253 38070ft 400kts
22-Apr-17 18:24 23.765895 -139.651462 253 38068ft 401kts
22-Apr-17 18:25 23.738895 -139.769149 253 38080ft 400kts
22-Apr-17 18:26 23.711820 -139.886666 253 38079ft 401kts
22-Apr-17 18:27 23.684785 -140.003644 253 38080ft 402kts
22-Apr-17 18:28 23.657488 -140.121326 253 38074ft 400kts
22-Apr-17 18:29 23.630092 -140.238968 253 38073ft 401kts
22-Apr-17 18:30 23.602618 -140.356526 253 38071ft 401kts
22-Apr-17 18:31 23.575078 -140.473933 253 38069ft 401kts
22-Apr-17 18:32 23.547444 -140.591321 253 38067ft 401kts
22-Apr-17 18:33 23.519728 -140.708635 253 38080ft 401kts
22-Apr-17 18:34 23.491906 -140.825974 253 38078ft 400kts
22-Apr-17 18:35 23.463942 -140.943492 253 38076ft 401kts
22-Apr-17 18:36 23.436012 -141.060447 253 38074ft 401kts
22-Apr-17 18:37 23.407915 -141.177688 253 38072ft 401kts
22-Apr-17 18:38 23.379775 -141.294711 253 38069ft 401kts
22-Apr-17 18:39 23.351572 -141.411558 253 38068ft 401kts
22-Apr-17 18:40 23.323171 -141.528829 253 38066ft 401kts
22-Apr-17 18:41 23.294742 -141.645800 253 38064ft 401kts
22-Apr-17 18:42 23.266172 -141.762939 252 38076ft 401kts
22-Apr-17 18:43 23.237555 -141.879870 252 38075ft 401kts
22-Apr-17 18:44 23.208888 -141.996600 252 38073ft 401kts
22-Apr-17 18:45 23.180040 -142.113668 252 38071ft 401kts
22-Apr-17 18:46 23.151239 -142.230150 253 38069ft 401kts
22-Apr-17 18:47 23.122258 -142.346959 253 38067ft 401kts
22-Apr-17 18:48 23.093202 -142.463676 253 38065ft 401kts
22-Apr-17 18:49 23.063992 -142.580623 253 38063ft 401kts
22-Apr-17 18:50 23.034730 -142.697366 252 38075ft 401kts
22-Apr-17 18:51 23.005435 -142.813843 252 38074ft 401kts
22-Apr-17 18:52 22.975965 -142.930633 252 38072ft 401kts
22-Apr-17 18:53 22.946508 -143.046994 252 38070ft 401kts
22-Apr-17 18:54 22.916963 -143.163314 252 38068ft 401kts
22-Apr-17 18:55 22.887276 -143.279800 252 38075ft 401kts
22-Apr-17 18:56 22.857504 -143.396236 252 38072ft 401kts
22-Apr-17 18:57 22.827608 -143.512774 252 38070ft 401kts
22-Apr-17 18:58 22.797721 -143.628899 252 38068ft 401kts
22-Apr-17 18:59 22.767671 -143.745297 252 38081ft 401kts
22-Apr-17 19:00 22.737542 -143.861608 252 38079ft 401kts
22-Apr-17 19:01 22.707387 -143.977633 252 38082ft 403kts
22-Apr-17 19:02 22.677108 -144.093784 252 38075ft 401kts
22-Apr-17 19:03 22.646719 -144.209967 252 38073ft 402kts
22-Apr-17 19:04 22.616235 -144.326148 252 38071ft 402kts
22-Apr-17 19:05 22.585723 -144.442062 252 38069ft 402kts
22-Apr-17 19:06 22.555063 -144.558170 252 38067ft 402kts
22-Apr-17 19:07 22.524375 -144.674017 252 38081ft 402kts
22-Apr-17 19:08 22.493607 -144.789817 252 38078ft 402kts
22-Apr-17 19:09 22.462687 -144.905812 252 38076ft 402kts
22-Apr-17 19:10 22.431707 -145.021675 252 38074ft 402kts
22-Apr-17 19:11 22.400695 -145.137291 252 38072ft 402kts
22-Apr-17 19:12 22.369625 -145.252767 252 38070ft 402kts
22-Apr-17 19:13 22.338419 -145.368408 252 38040ft 402kts
22-Apr-17 19:14 22.307045 -145.484291 252 38040ft 402kts
22-Apr-17 19:15 22.275709 -145.599693 252 38037ft 402kts
22-Apr-17 19:16 22.244173 -145.715464 251 38050ft 402kts
22-Apr-17 19:17 22.212623 -145.830945 251 38048ft 402kts
22-Apr-17 19:18 22.181000 -145.946337 251 38046ft 402kts
22-Apr-17 19:19 22.149258 -146.061823 251 38044ft 402kts
22-Apr-17 19:20 22.117457 -146.177176 252 38042ft 402kts
22-Apr-17 19:21 22.085511 -146.292705 252 38041ft 402kts
22-Apr-17 19:22 22.053512 -146.408084 252 38039ft 402kts
22-Apr-17 19:23 22.021451 -146.523342 252 38037ft 402kts
22-Apr-17 19:24 21.989361 -146.638365 252 38039ft 404kts
22-Apr-17 19:25 21.957068 -146.753757 251 38047ft 402kts
22-Apr-17 19:26 21.924839 -146.868591 251 38046ft 402kts
22-Apr-17 19:27 21.892414 -146.983783 251 38052ft 402kts
22-Apr-17 19:28 21.859964 -147.098749 251 38049ft 402kts
22-Apr-17 19:29 21.827307 -147.214092 251 38048ft 402kts
22-Apr-17 19:30 21.794752 -147.328744 251 38046ft 403kts
22-Apr-17 19:31 21.761951 -147.443930 251 38044ft 403kts
22-Apr-17 19:32 21.729152 -147.558781 251 38042ft 403kts
22-Apr-17 19:33 21.696294 -147.673503 251 38055ft 403kts
22-Apr-17 19:34 21.663317 -147.788334 251 38052ft 403kts
22-Apr-17 19:35 21.630281 -147.903023 251 38051ft 403kts
22-Apr-17 19:36 21.596991 -148.018279 251 38047ft 403kts
22-Apr-17 19:37 21.563843 -148.132700 251 38047ft 403kts
22-Apr-17 19:38 21.530566 -148.247257 251 38045ft 403kts
22-Apr-17 19:39 21.497103 -148.362125 251 38043ft 403kts
22-Apr-17 19:40 21.463621 -148.476740 251 38041ft 403kts
22-Apr-17 19:41 21.430051 -148.591334 251 38039ft 403kts
22-Apr-17 19:42 21.396809 -148.704495 251 38052ft 403kts
22-Apr-17 19:43 21.363025 -148.819190 251 38050ft 403kts
22-Apr-17 19:44 21.329220 -148.933633 251 38048ft 403kts
22-Apr-17 19:45 21.295415 -149.047766 251 38046ft 403kts
22-Apr-17 19:46 21.261409 -149.162268 251 38044ft 403kts
22-Apr-17 19:47 21.227442 -149.276309 251 38044ft 404kts
22-Apr-17 19:48 21.193301 -149.390657 251 38040ft 403kts
22-Apr-17 19:49 21.159097 -149.504886 251 38038ft 404kts
22-Apr-17 19:50 21.124748 -149.619292 251 38036ft 404kts
22-Apr-17 19:51 21.090413 -149.733328 251 38049ft 404kts
22-Apr-17 19:52 21.055987 -149.847370 251 38047ft 404kts
22-Apr-17 19:53 21.021423 -149.961568 251 38045ft 404kts
22-Apr-17 19:54 20.986812 -150.075618 251 38044ft 404kts
22-Apr-17 19:55 20.952093 -150.189722 251 38042ft 404kts
22-Apr-17 19:56 20.917389 -150.303476 251 38040ft 404kts
22-Apr-17 19:57 20.882875 -150.416299 251 38045ft 404kts
22-Apr-17 19:58 20.847947 -150.530180 251 38043ft 404kts
22-Apr-17 19:59 20.813008 -150.643804 251 38040ft 404kts
22-Apr-17 20:00 20.777927 -150.757603 250 38053ft 404kts
22-Apr-17 20:01 20.742738 -150.871450 250 38052ft 404kts
22-Apr-17 20:02 20.707573 -150.984920 250 38050ft 404kts
22-Apr-17 20:03 20.668853 -151.097292 248 38048ft 404kts
22-Apr-17 20:03 20.635617 -151.190375 248 38046ft 404kts
22-Apr-17 20:05 20.588787 -151.320819 248 38044ft 404kts
22-Apr-17 20:05 20.555230 -151.414037 248 38043ft 404kts
22-Apr-17 20:07 20.508240 -151.544261 248 38040ft 404kts
22-Apr-17 20:08 20.467962 -151.655608 248 38041ft 404kts
22-Apr-17 20:08 20.434120 -151.748970 248 38051ft 404kts
22-Apr-17 20:10 20.386917 -151.878913 248 38051ft 404kts
22-Apr-17 20:10 20.353170 -151.971568 248 38048ft 403kts
22-Apr-17 20:11 20.312623 -152.082683 248 38046ft 403kts
22-Apr-17 20:12 20.271976 -152.193824 248 38044ft 403kts
22-Apr-17 20:14 20.239469 -152.328493 256 38042ft 405kts
22-Apr-17 20:14 20.221244 -152.426308 257 38040ft 405kts
22-Apr-17 20:15 20.199404 -152.543708 257 38038ft 405kts
22-Apr-17 20:16 20.177814 -152.659407 256 38042ft 405kts
22-Apr-17 20:17 20.155809 -152.776874 256 38048ft 405kts
22-Apr-17 20:18 20.133721 -152.894354 256 38047ft 405kts
22-Apr-17 20:19 20.111578 -153.011680 256 38045ft 405kts
22-Apr-17 20:20 20.089378 -153.128872 256 38043ft 405kts
22-Apr-17 20:21 20.067075 -153.246171 256 38041ft 405kts
22-Apr-17 20:22 20.060742 -153.365873 269 38046ft 411kts
22-Apr-17 20:23 20.068098 -153.486802 270 38037ft 411kts
22-Apr-17 20:24 20.075636 -153.607691 270 38036ft 411kts
22-Apr-17 20:25 20.083019 -153.727003 269 38049ft 411kts
22-Apr-17 20:26 20.090434 -153.848014 269 38048ft 411kts
22-Apr-17 20:27 20.097753 -153.968812 269 38046ft 411kts
22-Apr-17 20:28 20.105011 -154.089958 269 38044ft 411kts
22-Apr-17 20:29 20.112195 -154.211276 269 38042ft 411kts
22-Apr-17 20:30 20.119280 -154.332324 269 38041ft 411kts
22-Apr-17 20:31 20.126283 -154.453390 269 38039ft 411kts
22-Apr-17 20:32 20.133210 -154.574653 270 38037ft 411kts
22-Apr-17 20:33 20.139933 -154.693730 269 38053ft 411kts
22-Apr-17 20:34 20.167571 -154.812913 281 38050ft 418kts
22-Apr-17 20:35 20.200959 -154.931099 281 38047ft 418kts
22-Apr-17 20:36 20.234443 -155.049484 281 38046ft 418kts
22-Apr-17 20:37 20.267738 -155.167483 281 38044ft 418kts
22-Apr-17 20:38 20.301156 -155.286251 281 38043ft 418kts
22-Apr-17 20:39 20.335404 -155.404135 282 38041ft 419kts
22-Apr-17 20:40 20.370141 -155.521762 282 38292ft 418kts
22-Apr-17 20:41 20.403300 -155.640499 281 38307ft 417kts
22-Apr-17 20:42 20.406300 -155.651745 280 38307ft 417kts
22-Apr-17 20:43 20.406300 -155.651745 280 38307ft 417kts
22-Apr-17 20:44 20.406300 -155.651745 280 38307ft 417kts
22-Apr-17 20:45 20.406300 -155.651745 280 38307ft 417kts
22-Apr-17 20:46 20.406300 -155.651745 280 38307ft 417kts
22-Apr-17 20:47 20.406300 -155.651745 280 38307ft 417kts
22-Apr-17 20:48 20.406300 -155.651745 280 38307ft 417kts
22-Apr-17 20:49 20.406300 -155.651745 280 38307ft 417kts
22-Apr-17 20:50 20.406300 -155.651745 280 38307ft 417kts
22-Apr-17 20:51 20.406300 -155.651745 280 38307ft 417kts
22-Apr-17 20:52 20.406300 -155.651745 280 38307ft 417kts
22-Apr-17 20:53 20.406300 -155.651745 280 38307ft 417kts
22-Apr-17 20:54 20.406300 -155.651745 280 38307ft 417kts
22-Apr-17 20:55 20.406300 -155.651745 280 38307ft 417kts
22-Apr-17 20:56 20.406300 -155.651745 280 38307ft 417kts
22-Apr-17 20:57 20.406300 -155.651745 280 38307ft 417kts
22-Apr-17 20:58 20.406300 -155.651745 280 38307ft 417kts
22-Apr-17 20:59 20.406300 -155.651745 280 38307ft 417kts
22-Apr-17 21:00 20.406300 -155.651745 280 38307ft 417kts
22-Apr-17 21:01 20.406300 -155.651745 280 38307ft 417kts
22-Apr-17 21:02 20.406300 -155.651745 280 38307ft 417kts
22-Apr-17 21:03 20.406300 -155.651745 280 38307ft 417kts
22-Apr-17 21:04 20.406300 -155.651745 280 38307ft 417kts
22-Apr-17 21:05 20.406300 -155.651745 280 38307ft 417kts
22-Apr-17 21:07 20.406300 -155.651745 280 38307ft 417kts
22-Apr-17 21:08 20.406300 -155.651745 280 38307ft 417kts
22-Apr-17 21:09 20.406300 -155.651745 280 38307ft 417kts
22-Apr-17 21:10 20.406300 -155.651745 280 38307ft 417kts
22-Apr-17 21:11 20.406300 -155.651745 280 38307ft 417kts
22-Apr-17 21:12 20.406300 -155.651745 280 38307ft 417kts
22-Apr-17 21:13 20.406300 -155.651745 280 38307ft 417kts
22-Apr-17 21:14 20.406300 -155.651745 280 38307ft 417kts
22-Apr-17 21:15 20.406300 -155.651745 280 38307ft 417kts
22-Apr-17 21:16 20.406300 -155.651745 280 38307ft 417kts
22-Apr-17 21:17 20.406300 -155.651745 280 38307ft 417kts
22-Apr-17 21:18 20.406300 -155.651745 280 38307ft 417kts
22-Apr-17 21:19 20.414141 -155.681159 280 38324ft 417kts
22-Apr-17 21:20 20.445794 -155.800030 280 38321ft 417kts
22-Apr-17 21:21 20.477404 -155.918342 281 38100ft 418kts
22-Apr-17 21:22 20.510221 -156.036983 281 38049ft 418kts
22-Apr-17 21:23 20.542461 -156.153899 281 37628ft 405kts
22-Apr-17 21:24 20.574716 -156.271395 281 35803ft 421kts
22-Apr-17 21:25 20.607977 -156.392829 282 32863ft 437kts
22-Apr-17 21:26 20.642302 -156.518465 283 29930ft 449kts
22-Apr-17 21:27 20.676796 -156.645051 284 27914ft 442kts
22-Apr-17 21:28 20.710253 -156.768278 284 25986ft 432kts
22-Apr-17 21:29 20.743083 -156.889580 284 24105ft 424kts
22-Apr-17 21:30 20.777291 -157.008681 287 22238ft 418kts
22-Apr-17 21:31 20.814894 -157.124777 287 20348ft 412kts
22-Apr-17 21:32 20.851754 -157.239139 287 18527ft 405kts
22-Apr-17 21:33 20.888032 -157.351961 287 16735ft 398kts
22-Apr-17 21:34 20.923195 -157.461598 287 15704ft 373kts
22-Apr-17 21:35 20.955115 -157.561386 287 14992ft 348kts
22-Apr-17 21:36 20.985935 -157.657936 288 13669ft 345kts
22-Apr-17 21:37 21.016589 -157.754145 288 12421ft 340kts
22-Apr-17 21:38 21.046742 -157.848986 288 11420ft 327kts
22-Apr-17 21:39 21.075092 -157.936888 295 10788ft 307kts
22-Apr-17 21:40 21.117745 -158.013093 302 9778ft 302kts
22-Apr-17 21:41 21.161060 -158.088904 302 8909ft 295kts
22-Apr-17 21:42 21.203280 -158.162826 302 7149ft 291kts
22-Apr-17 21:43 21.266682 -158.196151 2 5137ft 255kts
22-Apr-17 21:44 21.303706 -158.152843 84 3365ft 208kts
22-Apr-17 21:45 21.306361 -158.092872 88 2543ft 196kts
22-Apr-17 21:46 21.306745 -158.038385 88 1823ft 185kts
22-Apr-17 21:47 21.306687 -157.982736 89 947ft 169kts
22-Apr-17 21:48 21.306825 -157.936484 89 25ft 124kts
22-Apr-17 21:49 21.308295 -157.919353 60 24ft 28kts
22-Apr-17 21:50 21.309689 -157.920351 269 24ft 18kts
22-Apr-17 21:51 21.312297 -157.925504 318 24ft 18kts
22-Apr-17 21:52 21.316330 -157.920754 53 24ft 35kts
22-Apr-17 21:53 21.316470 -157.918866 161 24ft 0kts

Navigation Log

Ident Type
Flight plan parsing failed, navigation log unavailable